Time;durP1;ratioP1;P1;durP2;ratioP2;P2;SDS_P1;SDS_P2;PMS_P1;PMS_P2;Temp;Humidity;BMP_temperature;BMP_pressure;BME280_temperature;BME280_humidity;BME280_pressure;Samples;Min_cycle;Max_cycle;Signal;HPM_P1;HPM_P2
2023/05/15 00:01:57;;;;;;;1.40;0.80;;;13.10;99.90;;;;;;5116087;28;20432;-54
2023/05/15 00:04:24;;;;;;;1.25;0.90;;;13.20;99.90;;;;;;5116983;28;20832;-56
2023/05/15 00:06:52;;;;;;;1.30;0.90;;;13.20;99.90;;;;;;5116159;28;20443;-57
2023/05/15 00:09:19;;;;;;;1.13;0.80;;;13.20;99.90;;;;;;5115236;28;20451;-54
2023/05/15 00:11:47;;;;;;;1.10;0.90;;;13.10;99.90;;;;;;5115752;28;20420;-56
2023/05/15 00:14:14;;;;;;;1.30;0.90;;;13.00;99.90;;;;;;5115897;28;20416;-53
2023/05/15 00:16:41;;;;;;;1.23;0.80;;;13.00;99.90;;;;;;5115817;28;20443;-55
2023/05/15 00:19:08;;;;;;;2.10;0.90;;;13.00;99.90;;;;;;5116350;28;20424;-57
2023/05/15 00:21:35;;;;;;;1.40;0.80;;;13.00;99.90;;;;;;5116486;28;20432;-54
2023/05/15 00:24:03;;;;;;;1.30;0.90;;;13.00;99.90;;;;;;5116502;28;20770;-57
2023/05/15 00:26:30;;;;;;;1.60;0.80;;;13.00;99.90;;;;;;5116300;28;20420;-56
2023/05/15 00:28:58;;;;;;;1.00;0.73;;;13.00;99.90;;;;;;5115944;28;20510;-57
2023/05/15 00:31:25;;;;;;;0.97;0.70;;;13.00;99.90;;;;;;5116162;28;20439;-56
2023/05/15 00:33:53;;;;;;;1.15;0.80;;;13.10;99.90;;;;;;5116235;28;20416;-56
2023/05/15 00:36:20;;;;;;;1.00;0.70;;;13.10;99.90;;;;;;5116298;28;20585;-56
2023/05/15 00:38:47;;;;;;;1.50;0.70;;;13.10;99.90;;;;;;5116271;28;20719;-57
2023/05/15 00:41:15;;;;;;;1.30;0.80;;;13.10;99.90;;;;;;5116074;28;20424;-57
2023/05/15 00:43:45;;;;;;;1.20;0.80;;;13.10;99.90;;;;;;5115697;28;20431;-56
2023/05/15 00:46:15;;;;;;;0.90;0.60;;;13.00;99.90;;;;;;5115824;28;20430;-60
2023/05/15 00:48:43;;;;;;;1.15;0.80;;;13.10;99.90;;;;;;5115894;28;20846;-56
2023/05/15 00:51:10;;;;;;;1.10;0.80;;;13.20;99.90;;;;;;5116166;28;20812;-54
2023/05/15 00:53:38;;;;;;;1.20;0.90;;;13.20;99.90;;;;;;5114942;28;20452;-57
2023/05/15 00:56:08;;;;;;;1.00;0.70;;;13.10;99.90;;;;;;5116033;28;20511;-54
2023/05/15 00:58:36;;;;;;;1.10;0.80;;;13.10;99.90;;;;;;5115652;28;20518;-56
2023/05/15 01:01:03;;;;;;;1.20;0.80;;;13.10;99.90;;;;;;5115251;28;20431;-57
2023/05/15 01:03:32;;;;;;;1.88;0.80;;;13.20;99.90;;;;;;5115313;28;20439;-56
2023/05/15 01:05:59;;;;;;;1.20;0.70;;;13.40;99.90;;;;;;5115457;28;20785;-55
2023/05/15 01:08:32;;;;;;;1.10;0.70;;;13.40;99.90;;;;;;5115719;28;20415;-56
2023/05/15 01:11:00;;;;;;;1.40;0.80;;;13.20;99.90;;;;;;5115576;28;20424;-57
2023/05/15 01:13:27;;;;;;;0.93;0.70;;;13.10;99.90;;;;;;5115629;28;20712;-54
2023/05/15 01:15:55;;;;;;;1.10;0.80;;;13.10;99.90;;;;;;5115450;28;20432;-53
2023/05/15 01:18:22;;;;;;;1.00;0.70;;;13.10;99.90;;;;;;5115271;28;20428;-54
2023/05/15 01:21:07;;;;;;;1.20;0.70;;;13.10;99.90;;;;;;5115526;28;20424;-57
2023/05/15 01:23:45;;;;;;;1.10;0.80;;;12.90;99.90;;;;;;5115371;28;20426;-56
2023/05/15 01:26:42;;;;;;;1.20;0.82;;;12.90;99.90;;;;;;5114880;28;20778;-54
2023/05/15 01:29:18;;;;;;;1.00;0.80;;;12.80;99.90;;;;;;5092754;28;20728;-56
2023/05/15 01:31:50;;;;;;;1.10;0.80;;;12.80;99.90;;;;;;5115363;28;20428;-58
2023/05/15 01:34:19;;;;;;;1.10;0.90;;;12.70;99.90;;;;;;5115284;28;20416;-58
2023/05/15 01:36:51;;;;;;;1.17;0.90;;;12.70;99.90;;;;;;5114268;28;20738;-57
2023/05/15 01:39:22;;;;;;;1.35;0.80;;;12.70;99.90;;;;;;5115102;28;20754;-57
2023/05/15 01:41:54;;;;;;;0.90;0.70;;;12.80;99.90;;;;;;5115313;28;20789;-54
2023/05/15 01:44:28;;;;;;;1.10;0.80;;;12.80;99.90;;;;;;5114392;28;20420;-52
2023/05/15 01:46:58;;;;;;;2.42;0.80;;;12.70;99.90;;;;;;5115044;28;20427;-56
2023/05/15 01:49:28;;;;;;;1.00;0.80;;;12.80;99.90;;;;;;5114403;28;20420;-56
2023/05/15 01:52:01;;;;;;;1.00;0.70;;;12.80;99.90;;;;;;5113771;28;20432;-56
2023/05/15 01:54:29;;;;;;;1.10;0.80;;;12.90;99.90;;;;;;5115097;28;20423;-54
2023/05/15 01:56:57;;;;;;;1.10;0.80;;;12.90;99.90;;;;;;5115078;28;20424;-51
2023/05/15 01:59:26;;;;;;;1.20;0.80;;;12.90;99.90;;;;;;5114586;28;20775;-56
2023/05/15 02:01:54;;;;;;;1.40;0.70;;;13.00;99.90;;;;;;5115269;28;20727;-57
2023/05/15 02:04:22;;;;;;;1.60;0.80;;;13.00;99.90;;;;;;5114560;28;20810;-57
2023/05/15 02:06:52;;;;;;;3.00;0.90;;;13.00;99.90;;;;;;5119178;28;20477;-54
2023/05/15 02:09:20;;;;;;;1.10;0.70;;;13.00;99.90;;;;;;5119299;28;20419;-55
2023/05/15 02:11:47;;;;;;;1.00;0.70;;;13.10;99.90;;;;;;5118981;28;20472;-54
2023/05/15 02:14:16;;;;;;;1.57;0.70;;;13.10;99.90;;;;;;5118688;28;20416;-55
2023/05/15 02:16:44;;;;;;;1.10;0.80;;;13.10;99.90;;;;;;5118734;28;20430;-56
2023/05/15 02:19:12;;;;;;;1.20;0.80;;;13.10;99.90;;;;;;5118258;28;20474;-56
2023/05/15 02:21:39;;;;;;;1.00;0.70;;;13.10;99.90;;;;;;5118725;28;20722;-54
2023/05/15 02:24:06;;;;;;;1.10;0.77;;;13.00;99.90;;;;;;5118032;28;20523;-57
2023/05/15 02:26:43;;;;;;;1.10;0.70;;;13.00;99.90;;;;;;5118555;28;20420;-58
2023/05/15 02:29:18;;;;;;;1.15;0.80;;;13.00;99.90;;;;;;5118508;28;20416;-56
2023/05/15 02:31:57;;;;;;;1.10;0.80;;;13.00;99.90;;;;;;5118341;28;20838;-55
2023/05/15 02:34:33;;;;;;;1.00;0.70;;;13.00;99.90;;;;;;5118272;28;20423;-56
2023/05/15 02:37:03;;;;;;;1.10;0.80;;;13.00;99.90;;;;;;5118246;28;20836;-56
2023/05/15 02:39:32;;;;;;;1.60;0.80;;;12.90;99.90;;;;;;5118359;28;20423;-55
2023/05/15 02:42:01;;;;;;;1.55;0.80;;;12.90;99.90;;;;;;5117376;28;20423;-57
2023/05/15 02:44:28;;;;;;;1.00;0.80;;;12.80;99.90;;;;;;5118123;28;20412;-53
2023/05/15 02:46:58;;;;;;;1.73;0.80;;;12.80;99.90;;;;;;5118557;28;20434;-55
2023/05/15 02:49:25;;;;;;;1.20;0.90;;;12.80;99.90;;;;;;5118374;28;20424;-56
2023/05/15 02:51:52;;;;;;;1.58;0.85;;;12.70;99.90;;;;;;5118207;28;20839;-54
2023/05/15 02:54:20;;;;;;;1.17;0.82;;;12.60;99.90;;;;;;5117673;28;20424;-55
2023/05/15 02:56:47;;;;;;;1.25;0.88;;;12.60;99.90;;;;;;5116899;28;20428;-54
2023/05/15 02:59:18;;;;;;;1.00;0.80;;;12.60;99.90;;;;;;5115677;28;20739;-57
2023/05/15 03:01:46;;;;;;;1.10;0.80;;;12.70;99.90;;;;;;5116656;28;20530;-54
2023/05/15 03:04:15;;;;;;;1.70;0.80;;;12.70;99.90;;;;;;5116575;28;20832;-53
2023/05/15 03:06:42;;;;;;;1.20;0.70;;;12.80;99.90;;;;;;5116993;28;20917;-55
2023/05/15 03:09:09;;;;;;;1.30;0.80;;;12.90;99.90;;;;;;5115555;28;20843;-55
2023/05/15 03:11:36;;;;;;;1.77;0.90;;;13.00;99.90;;;;;;5115751;28;20644;-55
2023/05/15 03:14:03;;;;;;;1.50;0.90;;;13.00;99.90;;;;;;5116171;28;20461;-56
2023/05/15 03:16:30;;;;;;;1.20;0.80;;;13.00;99.90;;;;;;5115749;28;20439;-56
2023/05/15 03:18:57;;;;;;;1.15;0.88;;;13.00;99.90;;;;;;5116417;28;20542;-55
2023/05/15 03:21:26;;;;;;;1.10;0.80;;;13.00;99.90;;;;;;5115968;28;20811;-57
2023/05/15 03:23:53;;;;;;;1.10;0.80;;;12.90;99.90;;;;;;5116636;28;20408;-54
2023/05/15 03:26:20;;;;;;;1.20;0.90;;;12.90;99.90;;;;;;5117397;28;20844;-54
2023/05/15 03:28:47;;;;;;;1.58;0.80;;;12.90;99.90;;;;;;5117405;28;20416;-57
2023/05/15 03:31:14;;;;;;;0.90;0.80;;;12.90;99.90;;;;;;5117207;28;20835;-56
2023/05/15 03:33:42;;;;;;;1.20;0.70;;;13.00;99.90;;;;;;5115825;28;20514;-56
2023/05/15 03:36:09;;;;;;;1.50;0.80;;;13.00;99.90;;;;;;5115746;28;20511;-57
2023/05/15 03:38:37;;;;;;;1.73;0.80;;;13.00;99.90;;;;;;5115365;28;20424;-57
2023/05/15 03:41:04;;;;;;;1.60;0.80;;;13.10;99.90;;;;;;5116119;28;20428;-56
2023/05/15 03:43:31;;;;;;;1.90;0.70;;;13.10;99.90;;;;;;5114024;28;20416;-58
2023/05/15 03:45:59;;;;;;;1.20;0.80;;;13.10;99.90;;;;;;5114346;28;20439;-54
2023/05/15 03:48:26;;;;;;;1.10;0.80;;;13.20;99.90;;;;;;5115511;28;20719;-57
2023/05/15 03:50:53;;;;;;;1.10;0.70;;;13.30;99.90;;;;;;5115082;28;20432;-57
2023/05/15 03:53:20;;;;;;;1.50;0.80;;;13.40;99.90;;;;;;5115530;28;20817;-56
2023/05/15 03:55:49;;;;;;;1.20;0.80;;;13.40;99.90;;;;;;5115179;28;20501;-56
2023/05/15 03:58:16;;;;;;;1.10;0.70;;;13.50;99.90;;;;;;5115414;28;20439;-56
2023/05/15 04:00:43;;;;;;;1.10;0.80;;;13.60;99.90;;;;;;5116717;28;20420;-57
2023/05/15 04:03:11;;;;;;;1.10;0.80;;;13.60;99.90;;;;;;5116500;28;20450;-54
2023/05/15 04:05:38;;;;;;;1.20;0.85;;;13.60;99.90;;;;;;5116778;28;20451;-53
2023/05/15 04:08:05;;;;;;;1.20;0.90;;;13.50;99.90;;;;;;5116259;28;20843;-55
2023/05/15 04:10:32;;;;;;;1.00;0.80;;;13.30;99.90;;;;;;5113980;28;20435;-58
2023/05/15 04:13:01;;;;;;;1.30;0.80;;;13.40;99.90;;;;;;5115076;28;20424;-57
2023/05/15 04:15:28;;;;;;;1.10;0.80;;;13.40;99.90;;;;;;5115878;28;20408;-56
2023/05/15 04:17:55;;;;;;;1.20;0.90;;;13.50;99.90;;;;;;5115222;28;20510;-56
2023/05/15 04:20:24;;;;;;;1.10;0.80;;;13.50;99.90;;;;;;5115706;28;20823;-57
2023/05/15 04:22:52;;;;;;;1.60;0.85;;;13.50;99.90;;;;;;5115883;28;20884;-54
2023/05/15 04:25:19;;;;;;;1.50;1.00;;;13.60;99.90;;;;;;5115521;28;20416;-57
2023/05/15 04:27:48;;;;;;;1.40;1.00;;;13.70;99.90;;;;;;5114416;28;20467;-54
2023/05/15 04:30:16;;;;;;;2.95;1.10;;;13.70;99.90;;;;;;5114692;28;20502;-53
2023/05/15 04:32:43;;;;;;;1.30;0.90;;;13.80;99.90;;;;;;5114354;28;20424;-54
2023/05/15 04:35:12;;;;;;;1.38;1.00;;;13.80;99.90;;;;;;5114321;28;20720;-55
2023/05/15 04:37:40;;;;;;;1.10;0.90;;;13.90;99.90;;;;;;5114999;28;20512;-57
2023/05/15 04:40:08;;;;;;;1.60;0.80;;;13.80;99.90;;;;;;5115274;28;20973;-55
2023/05/15 04:42:36;;;;;;;1.30;1.00;;;13.90;99.90;;;;;;5115581;28;20436;-54
2023/05/15 04:45:04;;;;;;;1.30;0.90;;;14.00;99.90;;;;;;5115550;28;20420;-55
2023/05/15 04:47:32;;;;;;;1.20;0.93;;;14.10;99.90;;;;;;5115101;28;20431;-55
2023/05/15 04:49:59;;;;;;;1.10;0.80;;;14.10;99.90;;;;;;5114478;28;20492;-53
2023/05/15 04:52:26;;;;;;;1.30;1.00;;;14.20;99.90;;;;;;5113937;28;20420;-55
2023/05/15 04:54:54;;;;;;;2.00;0.90;;;14.20;99.90;;;;;;5112959;28;20416;-54
2023/05/15 04:57:21;;;;;;;1.20;1.00;;;14.20;99.90;;;;;;5113686;28;20796;-56
2023/05/15 04:59:48;;;;;;;1.42;1.00;;;14.20;99.90;;;;;;5113412;28;20475;-58
2023/05/15 05:02:15;;;;;;;1.80;0.98;;;14.20;99.90;;;;;;5113784;28;20428;-53
2023/05/15 05:04:44;;;;;;;1.40;1.00;;;14.10;99.90;;;;;;5113995;28;20779;-57
2023/05/15 05:07:12;;;;;;;1.40;1.00;;;14.20;99.90;;;;;;5113036;28;20431;-57
2023/05/15 05:09:40;;;;;;;1.40;1.10;;;14.20;99.90;;;;;;5113369;28;20411;-53
2023/05/15 05:12:08;;;;;;;1.20;0.90;;;14.00;99.90;;;;;;5114710;28;20733;-53
2023/05/15 05:14:35;;;;;;;1.30;0.98;;;14.00;99.90;;;;;;5112528;28;20420;-57
2023/05/15 05:17:03;;;;;;;1.40;1.00;;;14.20;99.90;;;;;;5110967;28;20618;-57
2023/05/15 05:19:30;;;;;;;1.40;1.00;;;14.30;99.90;;;;;;5114120;28;20765;-55
2023/05/15 05:22:03;;;;;;;1.52;1.10;;;14.40;99.90;;;;;;5113767;28;20419;-53
2023/05/15 05:24:30;;;;;;;1.70;1.00;;;14.30;99.90;;;;;;5112661;28;20428;-55
2023/05/15 05:26:58;;;;;;;1.60;1.10;;;14.40;99.90;;;;;;5113979;28;20424;-55
2023/05/15 05:29:25;;;;;;;1.30;1.00;;;14.50;99.90;;;;;;5112610;28;20460;-54
2023/05/15 05:31:52;;;;;;;1.40;1.00;;;14.40;99.90;;;;;;5112317;28;20803;-53
2023/05/15 05:34:19;;;;;;;1.65;1.15;;;14.40;99.90;;;;;;5113045;28;20416;-51
2023/05/15 05:36:46;;;;;;;1.42;1.00;;;14.40;99.90;;;;;;5112183;28;20862;-54
2023/05/15 05:39:15;;;;;;;1.40;1.00;;;14.20;99.90;;;;;;5113847;28;20424;-57
2023/05/15 05:41:42;;;;;;;1.60;1.30;;;14.30;99.90;;;;;;5117249;28;20824;-56
2023/05/15 05:44:09;;;;;;;2.00;1.10;;;14.40;99.90;;;;;;5116522;28;20416;-56
2023/05/15 05:46:37;;;;;;;2.70;1.30;;;14.50;99.90;;;;;;5115589;28;20426;-57
2023/05/15 05:49:04;;;;;;;1.60;1.10;;;14.50;99.90;;;;;;5114869;28;20419;-56
2023/05/15 05:51:31;;;;;;;1.20;1.00;;;14.50;99.90;;;;;;5115991;28;20731;-56
2023/05/15 05:53:58;;;;;;;1.90;1.20;;;14.60;99.90;;;;;;5114894;28;20416;-56
2023/05/15 05:56:27;;;;;;;2.80;1.30;;;14.60;99.90;;;;;;5115626;28;20442;-53
2023/05/15 05:58:55;;;;;;;2.30;1.20;;;14.70;99.90;;;;;;5115527;28;20738;-56
2023/05/15 06:01:22;;;;;;;2.20;1.90;;;14.70;99.90;;;;;;5118091;28;20427;-58
2023/05/15 06:03:49;;;;;;;1.85;1.20;;;14.70;99.90;;;;;;5116106;28;20431;-58
2023/05/15 06:06:16;;;;;;;2.58;1.70;;;14.50;99.90;;;;;;5114397;28;20435;-58
2023/05/15 06:08:43;;;;;;;2.40;1.65;;;14.50;99.90;;;;;;5116966;28;20506;-59
2023/05/15 06:11:11;;;;;;;2.10;1.33;;;14.60;99.90;;;;;;5115974;28;20431;-59
2023/05/15 06:13:39;;;;;;;1.92;1.20;;;14.60;99.90;;;;;;5114063;28;20650;-60
2023/05/15 06:16:07;;;;;;;2.10;1.48;;;14.50;99.90;;;;;;5114461;28;20526;-60
2023/05/15 06:18:34;;;;;;;2.10;1.65;;;14.70;99.90;;;;;;5114195;28;20515;-59
2023/05/15 06:21:01;;;;;;;1.88;1.50;;;14.60;99.90;;;;;;5115979;28;20858;-59
2023/05/15 06:23:28;;;;;;;2.38;1.10;;;14.50;99.90;;;;;;5113409;28;20480;-59
2023/05/15 06:25:55;;;;;;;1.65;1.25;;;14.80;99.90;;;;;;5116680;28;20905;-58
2023/05/15 06:28:22;;;;;;;1.48;1.02;;;15.00;99.90;;;;;;5114489;28;20432;-58
2023/05/15 06:30:51;;;;;;;1.85;1.50;;;15.00;99.90;;;;;;5114956;28;20862;-58
2023/05/15 06:33:20;;;;;;;2.17;1.20;;;15.00;99.90;;;;;;5103972;28;20438;-59
2023/05/15 06:35:47;;;;;;;2.10;1.20;;;15.00;99.90;;;;;;5095460;28;20519;-57
2023/05/15 06:38:14;;;;;;;1.80;1.30;;;15.00;99.90;;;;;;5097635;28;20432;-59
2023/05/15 06:40:41;;;;;;;11.98;8.07;;;15.00;99.90;;;;;;5112913;28;20897;-58
2023/05/15 06:43:08;;;;;;;1.80;1.20;;;15.20;99.90;;;;;;5111543;28;20427;-59
2023/05/15 06:45:35;;;;;;;3.40;1.60;;;15.30;99.90;;;;;;5095228;28;20422;-58
2023/05/15 06:48:04;;;;;;;2.10;1.20;;;15.50;99.90;;;;;;5095071;28;20705;-58
2023/05/15 06:50:31;;;;;;;2.50;1.10;;;15.70;99.90;;;;;;5111249;28;20799;-59
2023/05/15 06:52:58;;;;;;;2.40;1.30;;;15.80;99.90;;;;;;5102340;28;20441;-58
2023/05/15 06:55:25;;;;;;;1.70;1.20;;;15.80;99.90;;;;;;5094859;28;20418;-59
2023/05/15 06:57:53;;;;;;;1.50;1.10;;;15.80;99.90;;;;;;5104050;28;20432;-59
2023/05/15 07:00:20;;;;;;;1.50;1.10;;;15.90;99.90;;;;;;5112671;28;20441;-59
2023/05/15 07:02:47;;;;;;;1.40;1.10;;;15.90;99.90;;;;;;5109968;28;20805;-59
2023/05/15 07:05:16;;;;;;;2.10;1.00;;;16.00;99.90;;;;;;5111718;28;20485;-58
2023/05/15 07:07:43;;;;;;;2.00;1.00;;;16.00;99.90;;;;;;5112171;28;20459;-59
2023/05/15 07:10:10;;;;;;;1.33;1.00;;;16.00;99.90;;;;;;5112288;28;20412;-57
2023/05/15 07:12:37;;;;;;;1.40;1.10;;;16.00;99.90;;;;;;5111284;28;20432;-57
2023/05/15 07:15:05;;;;;;;2.22;0.90;;;16.20;99.90;;;;;;5112033;28;20709;-57
2023/05/15 07:17:33;;;;;;;1.92;1.00;;;16.30;99.90;;;;;;5112271;28;20575;-59
2023/05/15 07:20:00;;;;;;;1.40;1.00;;;16.30;99.90;;;;;;5112810;28;20930;-59
2023/05/15 07:22:28;;;;;;;1.70;1.10;;;16.30;99.90;;;;;;5114097;28;20443;-59
2023/05/15 07:24:55;;;;;;;3.15;2.50;;;16.30;99.90;;;;;;5101575;28;20657;-59
2023/05/15 07:27:23;;;;;;;3.05;1.77;;;16.30;99.90;;;;;;5091651;28;20432;-52
2023/05/15 07:29:50;;;;;;;2.25;1.48;;;16.40;99.90;;;;;;5103495;28;20428;-56
2023/05/15 07:32:17;;;;;;;2.40;0.90;;;16.40;99.90;;;;;;5102782;28;20466;-59
2023/05/15 07:34:44;;;;;;;2.30;1.33;;;16.50;99.90;;;;;;5112372;28;20432;-55
2023/05/15 07:37:11;;;;;;;1.30;0.90;;;16.50;99.90;;;;;;5112161;28;20432;-56
2023/05/15 07:39:39;;;;;;;7.30;1.50;;;16.50;99.90;;;;;;5111834;28;20436;-57
2023/05/15 07:42:07;;;;;;;1.80;0.93;;;16.50;99.90;;;;;;5113024;28;20420;-55
2023/05/15 07:44:34;;;;;;;1.60;0.90;;;16.60;99.90;;;;;;5112085;28;20437;-58
2023/05/15 07:47:01;;;;;;;1.30;0.90;;;16.50;99.90;;;;;;5113069;28;20424;-57
2023/05/15 07:49:28;;;;;;;1.20;0.80;;;16.50;99.90;;;;;;5113184;28;20416;-58
2023/05/15 07:51:55;;;;;;;1.20;0.80;;;16.50;99.90;;;;;;5113848;28;20439;-56
2023/05/15 07:54:22;;;;;;;1.20;0.90;;;16.60;99.90;;;;;;5111873;28;20923;-58
2023/05/15 07:56:50;;;;;;;1.30;0.80;;;16.80;99.90;;;;;;5094629;28;20479;-57
2023/05/15 07:59:17;;;;;;;1.70;0.80;;;16.90;99.90;;;;;;5105881;28;20486;-57
2023/05/15 08:01:44;;;;;;;1.00;0.80;;;17.00;99.90;;;;;;5115384;28;20889;-57
2023/05/15 08:04:12;;;;;;;1.00;0.80;;;17.20;99.90;;;;;;5114184;28;20420;-57
2023/05/15 08:06:41;;;;;;;1.20;0.90;;;17.20;99.90;;;;;;5112458;28;20411;-56
2023/05/15 08:09:08;;;;;;;1.38;0.70;;;17.20;99.90;;;;;;5112779;28;20461;-57
2023/05/15 08:11:36;;;;;;;1.00;0.80;;;17.10;99.90;;;;;;5114006;28;20431;-58
2023/05/15 08:14:04;;;;;;;1.50;0.80;;;17.10;99.90;;;;;;5114209;28;20420;-57
2023/05/15 08:16:31;;;;;;;1.00;0.70;;;17.30;99.90;;;;;;5111517;28;20436;-55
2023/05/15 08:19:02;;;;;;;1.10;0.80;;;17.40;99.90;;;;;;5112364;28;20781;-56
2023/05/15 08:21:29;;;;;;;1.00;0.90;;;17.50;99.90;;;;;;5113505;28;20428;-56
2023/05/15 08:23:57;;;;;;;1.00;0.85;;;17.60;99.90;;;;;;5113983;28;20948;-57
2023/05/15 08:26:24;;;;;;;1.20;0.80;;;17.60;99.90;;;;;;5114652;28;20774;-59
2023/05/15 08:28:51;;;;;;;1.17;0.80;;;17.70;99.90;;;;;;5114507;28;20416;-58
2023/05/15 08:31:19;;;;;;;1.20;0.88;;;17.80;99.90;;;;;;5114431;28;20420;-54
2023/05/15 08:33:47;;;;;;;1.50;0.80;;;17.60;99.90;;;;;;5112896;28;20420;-57
2023/05/15 08:36:14;;;;;;;1.10;0.80;;;17.40;99.90;;;;;;5112005;28;20880;-57
2023/05/15 08:38:41;;;;;;;1.00;0.80;;;17.30;99.90;;;;;;5110002;28;20852;-57
2023/05/15 08:41:16;;;;;;;1.00;0.70;;;17.40;99.90;;;;;;5108028;28;20522;-58
2023/05/15 08:43:45;;;;;;;1.00;0.80;;;17.60;99.90;;;;;;5110959;28;20416;-58
2023/05/15 08:46:12;;;;;;;1.00;0.70;;;17.80;99.90;;;;;;5110120;28;20478;-57
2023/05/15 08:48:43;;;;;;;1.00;0.70;;;18.00;99.90;;;;;;5107510;28;20438;-56
2023/05/15 08:51:11;;;;;;;0.90;0.80;;;18.10;99.90;;;;;;5090994;28;20737;-58
2023/05/15 08:53:38;;;;;;;1.00;0.70;;;18.20;99.90;;;;;;5107892;28;20430;-57
2023/05/15 08:56:06;;;;;;;1.60;0.80;;;18.30;99.90;;;;;;5111956;28;20796;-58
2023/05/15 08:58:33;;;;;;;1.00;0.80;;;18.30;99.90;;;;;;5101050;28;20468;-57
2023/05/15 09:01:01;;;;;;;2.13;0.82;;;18.30;99.90;;;;;;5112561;28;20871;-56
2023/05/15 09:03:28;;;;;;;1.67;1.30;;;18.40;99.90;;;;;;5112736;28;20857;-58
2023/05/15 09:05:58;;;;;;;0.90;0.80;;;18.30;99.90;;;;;;5112353;28;20428;-59
2023/05/15 09:08:27;;;;;;;1.40;0.70;;;18.40;99.90;;;;;;5113450;28;20427;-59
2023/05/15 09:10:56;;;;;;;1.88;1.13;;;18.30;99.90;;;;;;5111294;28;20846;-58
2023/05/15 09:13:23;;;;;;;1.30;1.00;;;18.30;99.90;;;;;;5110297;28;20848;-59
2023/05/15 09:15:51;;;;;;;0.95;0.80;;;18.40;99.90;;;;;;5111784;28;20866;-58
2023/05/15 09:18:18;;;;;;;1.20;0.90;;;18.50;99.90;;;;;;5112169;28;20443;-58
2023/05/15 09:20:45;;;;;;;1.08;0.90;;;18.60;99.90;;;;;;5110904;28;20835;-58
2023/05/15 09:23:25;;;;;;;1.60;0.90;;;18.60;99.90;;;;;;5112304;28;20429;-52
2023/05/15 09:25:55;;;;;;;1.10;0.95;;;18.90;99.90;;;;;;5111741;28;20523;-53
2023/05/15 09:28:27;;;;;;;1.17;0.90;;;19.10;99.90;;;;;;5112504;28;20452;-54
2023/05/15 09:31:00;;;;;;;1.10;0.90;;;19.10;99.90;;;;;;5104786;28;20485;-53
2023/05/15 09:33:35;;;;;;;1.00;0.90;;;19.00;99.90;;;;;;5109776;28;20516;-53
2023/05/15 09:36:02;;;;;;;1.10;0.90;;;18.90;99.90;;;;;;5101229;28;20465;-53
2023/05/15 09:38:33;;;;;;;1.10;0.80;;;18.70;99.90;;;;;;5104109;28;20432;-52
2023/05/15 09:41:05;;;;;;;1.30;0.90;;;18.70;99.90;;;;;;5108068;28;20475;-58
2023/05/15 09:43:35;;;;;;;1.50;1.00;;;18.70;99.90;;;;;;5109476;28;20705;-57
2023/05/15 09:46:02;;;;;;;1.20;0.90;;;18.90;99.90;;;;;;5111180;28;20436;-57
2023/05/15 09:48:30;;;;;;;1.30;0.98;;;19.10;99.90;;;;;;5110919;28;20886;-58
2023/05/15 09:50:57;;;;;;;1.20;0.90;;;19.30;99.90;;;;;;5111310;28;20443;-58
2023/05/15 09:53:25;;;;;;;0.90;0.80;;;19.40;99.90;;;;;;5106543;28;20428;-57
2023/05/15 09:55:54;;;;;;;1.20;0.88;;;19.60;99.90;;;;;;5103123;28;20436;-56
2023/05/15 09:58:22;;;;;;;1.80;0.90;;;19.70;99.90;;;;;;5108587;28;20466;-55
2023/05/15 10:00:49;;;;;;;1.65;0.90;;;19.80;99.90;;;;;;5105346;28;20514;-54
2023/05/15 10:03:18;;;;;;;1.17;0.87;;;19.40;99.90;;;;;;5106095;28;20439;-54
2023/05/15 10:05:46;;;;;;;1.13;0.90;;;19.60;99.90;;;;;;5105406;28;20467;-56
2023/05/15 10:08:13;;;;;;;1.40;0.90;;;19.70;99.90;;;;;;5110738;28;20502;-57
2023/05/15 10:10:41;;;;;;;3.10;2.80;;;20.00;99.90;;;;;;5097067;28;20478;-56
2023/05/15 10:13:12;;;;;;;1.90;0.90;;;20.00;99.90;;;;;;5106940;28;20413;-57
2023/05/15 10:15:40;;;;;;;1.52;1.00;;;20.30;99.90;;;;;;5109138;28;20432;-57
2023/05/15 10:18:07;;;;;;;1.25;0.90;;;20.50;99.90;;;;;;5110439;28;20432;-57
2023/05/15 10:20:38;;;;;;;1.20;0.80;;;20.30;99.90;;;;;;5113209;28;20443;-57
2023/05/15 10:23:10;;;;;;;1.33;0.82;;;20.50;99.90;;;;;;5113360;28;20441;-56
2023/05/15 10:25:41;;;;;;;1.10;0.82;;;20.90;99.90;;;;;;5111883;28;20474;-57
2023/05/15 10:28:11;;;;;;;1.30;0.90;;;21.30;99.90;;;;;;5110427;28;20439;-58
2023/05/15 10:30:39;;;;;;;1.30;0.80;;;21.60;99.90;;;;;;5096305;28;20420;-57
2023/05/15 10:33:07;;;;;;;1.00;0.90;;;21.80;99.90;;;;;;5112175;28;20428;-58
2023/05/15 10:35:35;;;;;;;0.90;0.80;;;21.30;99.90;;;;;;5112567;28;20933;-57
2023/05/15 10:38:04;;;;;;;1.10;0.90;;;21.00;99.90;;;;;;5111745;28;20432;-54
2023/05/15 10:40:32;;;;;;;1.47;1.00;;;20.80;99.90;;;;;;5113022;28;20543;-57
2023/05/15 10:43:00;;;;;;;1.45;0.80;;;20.80;99.90;;;;;;5111969;28;20422;-56
2023/05/15 10:45:30;;;;;;;1.30;0.80;;;21.30;99.90;;;;;;5113360;28;20546;-57
2023/05/15 10:48:00;;;;;;;0.90;0.70;;;21.80;99.90;;;;;;5114059;28;20859;-58
2023/05/15 10:50:27;;;;;;;1.20;0.80;;;21.80;99.90;;;;;;5113525;28;20803;-59
2023/05/15 10:52:55;;;;;;;1.00;0.70;;;21.50;99.90;;;;;;5113936;28;20849;-58
2023/05/15 10:55:23;;;;;;;0.90;0.70;;;21.70;99.90;;;;;;5111386;28;20425;-57
2023/05/15 10:57:50;;;;;;;0.80;0.70;;;21.60;99.90;;;;;;5113919;28;20505;-59
2023/05/15 11:00:30;;;;;;;0.80;0.70;;;21.60;99.90;;;;;;5107184;28;20474;-58
2023/05/15 11:02:58;;;;;;;0.90;0.70;;;21.60;99.90;;;;;;5112249;28;20488;-57
2023/05/15 11:05:25;;;;;;;1.10;0.70;;;21.20;99.90;;;;;;5112409;28;20426;-58
2023/05/15 11:08:26;;;;;;;1.80;0.73;;;21.30;99.90;;;;;;5110696;28;20416;-57
2023/05/15 11:10:53;;;;;;;1.15;0.70;;;21.20;99.90;;;;;;5093801;28;20458;-59
2023/05/15 11:13:20;;;;;;;1.10;0.60;;;21.70;99.90;;;;;;5107915;28;20424;-57
2023/05/15 11:15:49;;;;;;;1.02;0.70;;;22.30;99.90;;;;;;5111576;28;20484;-59
2023/05/15 11:18:17;;;;;;;0.70;0.65;;;22.10;99.90;;;;;;5106713;28;20484;-57
2023/05/15 11:21:07;;;;;;;1.58;0.70;;;22.60;99.90;;;;;;5094689;28;20438;-57
2023/05/15 11:23:41;;;;;;;0.90;0.70;;;22.50;99.90;;;;;;5104448;28;20441;-57
2023/05/15 11:26:10;;;;;;;0.90;0.60;;;22.60;99.90;;;;;;5106227;28;20457;-57
2023/05/15 11:28:46;;;;;;;1.10;0.70;;;22.70;98.80;;;;;;5101463;28;20777;-57
2023/05/15 11:31:14;;;;;;;0.80;0.63;;;22.90;98.80;;;;;;5101573;28;20420;-58
2023/05/15 11:33:41;;;;;;;0.90;0.70;;;23.20;97.40;;;;;;5092998;28;20420;-57
2023/05/15 11:36:09;;;;;;;0.90;0.60;;;23.40;97.20;;;;;;5110792;28;20439;-58
2023/05/15 11:38:39;;;;;;;1.10;0.60;;;23.40;96.00;;;;;;5112580;28;20424;-57
2023/05/15 11:41:18;;;;;;;0.80;0.63;;;22.60;93.40;;;;;;5108422;28;20901;-58
2023/05/15 11:43:45;;;;;;;0.90;0.60;;;22.50;93.20;;;;;;5094477;28;20418;-58
2023/05/15 11:46:16;;;;;;;1.30;0.60;;;22.80;90.90;;;;;;5103189;28;20425;-56
2023/05/15 11:48:46;;;;;;;0.70;0.60;;;23.30;93.40;;;;;;5113145;28;20522;-57
2023/05/15 11:51:17;;;;;;;0.90;0.60;;;23.90;91.80;;;;;;5113872;28;20716;-58
2023/05/15 11:53:44;;;;;;;1.40;0.60;;;24.30;91.10;;;;;;5112644;28;20515;-58
2023/05/15 11:56:17;;;;;;;0.80;0.60;;;23.80;90.00;;;;;;5111199;28;20443;-57
2023/05/15 11:58:44;;;;;;;0.70;0.60;;;24.00;86.00;;;;;;5113024;28;20485;-57
2023/05/15 12:01:12;;;;;;;0.80;0.60;;;24.30;89.10;;;;;;5112229;28;20800;-57
2023/05/15 12:03:40;;;;;;;0.80;0.70;;;24.50;84.00;;;;;;5112516;28;20863;-58
2023/05/15 12:06:07;;;;;;;1.20;0.60;;;24.00;84.60;;;;;;5114476;28;20435;-56
2023/05/15 12:08:36;;;;;;;0.90;0.80;;;23.60;86.80;;;;;;5112154;28;20426;-57
2023/05/15 12:11:04;;;;;;;1.80;0.90;;;23.10;90.20;;;;;;5110473;28;20841;-56
2023/05/15 12:13:33;;;;;;;0.80;0.70;;;23.10;90.30;;;;;;5111334;28;20420;-57
2023/05/15 12:16:02;;;;;;;1.10;1.00;;;23.80;84.30;;;;;;5112122;28;20682;-58
2023/05/15 12:18:30;;;;;;;0.70;0.60;;;24.40;81.90;;;;;;5094754;28;20796;-58
2023/05/15 12:20:58;;;;;;;0.80;0.70;;;24.40;80.30;;;;;;5112737;28;20832;-57
2023/05/15 12:23:27;;;;;;;1.50;0.70;;;23.40;84.60;;;;;;5112943;28;20430;-58
2023/05/15 12:26:01;;;;;;;1.20;0.80;;;23.00;87.40;;;;;;5111940;28;20455;-58
2023/05/15 12:28:29;;;;;;;1.10;0.80;;;22.70;87.80;;;;;;5112873;28;20423;-57
2023/05/15 12:30:57;;;;;;;0.80;0.70;;;22.20;91.00;;;;;;5112278;28;20427;-58
2023/05/15 12:33:25;;;;;;;1.02;0.70;;;21.90;93.10;;;;;;5112331;28;20505;-57
2023/05/15 12:35:55;;;;;;;0.80;0.60;;;21.80;93.70;;;;;;5112092;28;20435;-57
2023/05/15 12:38:24;;;;;;;0.70;0.60;;;22.10;88.80;;;;;;5112193;28;20435;-56
2023/05/15 12:40:53;;;;;;;1.05;0.70;;;22.60;86.20;;;;;;5113168;28;20432;-57
2023/05/15 12:43:20;;;;;;;0.80;0.60;;;23.10;78.30;;;;;;5110357;28;20658;-56
2023/05/15 12:45:51;;;;;;;0.90;0.70;;;23.60;78.10;;;;;;5112647;28;20519;-56
2023/05/15 12:48:18;;;;;;;1.20;0.80;;;23.90;78.40;;;;;;5112128;28;20921;-58
2023/05/15 12:50:45;;;;;;;1.00;0.70;;;24.00;78.50;;;;;;5109693;28;20435;-57
2023/05/15 12:53:14;;;;;;;0.90;0.70;;;24.40;78.40;;;;;;5109552;28;20416;-58
2023/05/15 12:55:45;;;;;;;1.10;0.70;;;24.20;78.40;;;;;;5112987;28;20851;-57